Time;durP1;ratioP1;P1;durP2;ratioP2;P2;SDS_P1;SDS_P2;PMS_P1;PMS_P2;Temp;Humidity;BMP_temperature;BMP_pressure;BME280_temperature;BME280_humidity;BME280_pressure;Samples;Min_cycle;Max_cycle;Signal;HPM_P1;HPM_P2
2022/07/13 00:02:15;;;;;;;;;;;;;;;19.11;62.00;100319.47;5097251;28;1822;-95
2022/07/13 00:04:41;;;;;;;;;;;;;;;19.11;61.96;100324.94;5105004;28;1507;-95
2022/07/13 00:07:07;;;;;;;;;;;;;;;19.11;62.15;100319.47;5102731;28;1491;-95
2022/07/13 00:09:34;;;;;;;;;;;;;;;19.10;62.22;100324.13;5101493;28;1749;-95
2022/07/13 00:12:00;;;;;;;;;;;;;;;19.10;62.36;100324.13;5104864;28;1366;-95
2022/07/13 00:14:27;;;;;;;;;;;;;;;19.11;62.12;100322.19;5104311;28;1515;-95
2022/07/13 00:16:53;;;;;;;;;;;;;;;19.09;61.97;100317.03;5103353;28;1913;-95
2022/07/13 00:19:19;;;;;;;;;;;;;;;19.09;62.26;100318.94;5106559;28;1475;-95
2022/07/13 00:21:46;;;;;;;;;;;;;;;19.09;61.98;100332.56;5100899;28;1751;-95
2022/07/13 00:24:14;;;;;;;;;;;;;;;19.09;62.06;100327.13;5103750;28;1313;-94
2022/07/13 00:26:40;;;;;;;;;;;;;;;19.08;62.02;100325.50;5102292;28;1282;-95
2022/07/13 00:29:06;;;;;;;;;;;;;;;19.08;62.40;100320.84;5099527;28;1707;-95
2022/07/13 00:31:33;;;;;;;;;;;;;;;19.08;62.37;100315.38;5096222;28;1473;-95
2022/07/13 00:33:59;;;;;;;;;;;;;;;19.07;62.03;100316.50;5104010;28;1518;-95
2022/07/13 00:36:26;;;;;;;;;;;;;;;19.07;61.96;100308.31;5098788;28;2760;-95
2022/07/13 00:38:52;;;;;;;;;;;;;;;19.05;61.95;100305.84;5100577;28;3260;-96
2022/07/13 00:41:18;;;;;;;;;;;;;;;19.06;61.97;100304.78;5096333;28;1594;-96
2022/07/13 00:43:45;;;;;;;;;;;;;;;19.06;61.96;100293.03;5099383;28;2251;-96
2022/07/13 00:46:13;;;;;;;;;;;;;;;19.05;62.28;100297.66;5099723;28;1502;-95
2022/07/13 00:48:40;;;;;;;;;;;;;;;19.05;62.22;100277.75;5100217;28;1566;-95
2022/07/13 00:51:06;;;;;;;;;;;;;;;19.06;62.20;100279.41;5099410;28;1535;-95
2022/07/13 00:53:32;;;;;;;;;;;;;;;19.04;62.26;100268.75;5101655;28;1503;-95
2022/07/13 00:55:59;;;;;;;;;;;;;;;19.03;61.97;100261.69;5098669;28;2163;-94
2022/07/13 00:58:25;;;;;;;;;;;;;;;19.04;61.89;100257.03;5098007;28;1662;-95
2022/07/13 01:00:51;;;;;;;;;;;;;;;19.04;62.08;100257.03;5096270;28;1505;-95
2022/07/13 01:03:18;;;;;;;;;;;;;;;19.03;62.24;100245.31;5096393;28;1543;-95
2022/07/13 01:05:44;;;;;;;;;;;;;;;19.03;61.96;100245.31;5097724;28;1545;-94
2022/07/13 01:08:10;;;;;;;;;;;;;;;19.03;62.16;100244.47;5102392;28;1549;-95
2022/07/13 01:10:37;;;;;;;;;;;;;;;19.01;62.19;100244.75;5095764;28;1450;-95
2022/07/13 01:13:03;;;;;;;;;;;;;;;19.01;62.20;100241.22;5102008;28;1678;-95
2022/07/13 01:15:30;;;;;;;;;;;;;;;19.02;61.84;100251.03;5102427;28;1479;-95
2022/07/13 01:17:56;;;;;;;;;;;;;;;19.01;62.25;100252.13;5101762;28;1986;-95
2022/07/13 01:20:23;;;;;;;;;;;;;;;19.00;61.94;100251.31;5108349;28;1486;-95
2022/07/13 01:22:49;;;;;;;;;;;;;;;19.00;62.10;100251.31;5109006;28;1358;-95
2022/07/13 01:25:16;;;;;;;;;;;;;;;18.99;62.15;100249.66;5097072;28;1496;-95
2022/07/13 01:27:42;;;;;;;;;;;;;;;18.99;61.95;100257.06;5092282;28;1706;-95
2022/07/13 01:30:09;;;;;;;;;;;;;;;18.98;62.03;100253.50;5102982;28;1522;-94
2022/07/13 01:32:35;;;;;;;;;;;;;;;19.00;62.01;100255.94;5119402;27;1408;-95
2022/07/13 01:35:01;;;;;;;;;;;;;;;18.97;62.26;100257.34;5099273;28;1577;-95
2022/07/13 01:37:28;;;;;;;;;;;;;;;18.98;62.32;100253.50;5095568;28;1977;-96
2022/07/13 01:39:55;;;;;;;;;;;;;;;18.97;62.24;100249.16;5113875;27;1851;-95
2022/07/13 01:42:22;;;;;;;;;;;;;;;18.97;61.95;100246.44;5096561;28;1427;-96
2022/07/13 01:44:48;;;;;;;;;;;;;;;18.98;61.71;100236.31;5099922;28;1491;-94
2022/07/13 01:47:14;;;;;;;;;;;;;;;18.97;61.87;100240.13;5101357;28;1734;-95
2022/07/13 01:49:41;;;;;;;;;;;;;;;18.96;62.07;100236.59;5108567;28;1409;-95
2022/07/13 01:52:07;;;;;;;;;;;;;;;18.97;61.72;100231.94;5094528;28;1526;-95
2022/07/13 01:54:33;;;;;;;;;;;;;;;18.95;61.89;100224.06;5095245;28;1287;-95
2022/07/13 01:57:00;;;;;;;;;;;;;;;18.96;61.90;100224.88;5090949;28;1993;-95
2022/07/13 01:59:27;;;;;;;;;;;;;;;18.95;61.92;100217.78;5094797;28;1209;-95
2022/07/13 02:01:53;;;;;;;;;;;;;;;18.95;62.16;100212.34;5096478;28;1454;-95
2022/07/13 02:04:19;;;;;;;;;;;;;;;18.95;61.95;100204.97;5096611;28;1581;-95
2022/07/13 02:06:46;;;;;;;;;;;;;;;18.94;61.87;100197.88;5096541;28;1763;-94
2022/07/13 02:09:15;;;;;;;;;;;;;;;18.95;61.97;100198.69;5104115;28;1476;-95
2022/07/13 02:11:42;;;;;;;;;;;;;;;18.95;62.13;100195.97;5106691;28;1458;-95
2022/07/13 02:14:08;;;;;;;;;;;;;;;18.93;62.03;100189.97;5096684;28;1242;-95
2022/07/13 02:16:35;;;;;;;;;;;;;;;18.93;61.97;100179.88;5097770;28;1955;-95
2022/07/13 02:19:01;;;;;;;;;;;;;;;18.93;62.03;100179.06;5098041;28;1467;-95
2022/07/13 02:21:28;;;;;;;;;;;;;;;18.93;61.88;100176.31;5099898;28;1417;-95
2022/07/13 02:23:54;;;;;;;;;;;;;;;18.91;62.20;100173.88;5098401;28;1385;-94
2022/07/13 02:26:20;;;;;;;;;;;;;;;18.92;61.69;100170.06;5097821;28;1997;-95
2022/07/13 02:28:47;;;;;;;;;;;;;;;18.91;61.76;100170.31;5096439;28;1281;-95
2022/07/13 02:31:13;;;;;;;;;;;;;;;18.91;61.84;100170.31;5094966;28;1467;-95
2022/07/13 02:33:40;;;;;;;;;;;;;;;18.90;62.06;100161.34;5100133;28;1517;-95
2022/07/13 02:36:06;;;;;;;;;;;;;;;18.90;62.15;100161.34;5101831;28;1686;-95
2022/07/13 02:38:32;;;;;;;;;;;;;;;18.90;61.99;100164.06;5101940;28;2031;-95
2022/07/13 02:40:59;;;;;;;;;;;;;;;18.89;62.05;100170.63;5097207;28;1627;-95
2022/07/13 02:43:25;;;;;;;;;;;;;;;18.89;62.08;100167.09;5097960;28;1391;-95
2022/07/13 02:45:52;;;;;;;;;;;;;;;18.89;61.85;100167.09;5097261;28;1741;-95
2022/07/13 02:48:18;;;;;;;;;;;;;;;18.89;61.80;100170.63;5100302;28;1565;-95
2022/07/13 02:50:44;;;;;;;;;;;;;;;18.89;61.99;100167.09;5095262;28;1435;-95
2022/07/13 02:53:11;;;;;;;;;;;;;;;18.88;61.76;100160.00;5102929;28;1459;-95
2022/07/13 02:55:37;;;;;;;;;;;;;;;18.87;62.23;100153.72;5098424;28;1689;-95
2022/07/13 02:58:03;;;;;;;;;;;;;;;18.87;62.02;100159.19;5097497;28;1985;-94
2022/07/13 03:00:30;;;;;;;;;;;;;;;18.88;61.91;100154.53;5094489;28;1557;-95
2022/07/13 03:02:56;;;;;;;;;;;;;;;18.86;61.74;100148.56;5095639;28;1348;-95
2022/07/13 03:05:23;;;;;;;;;;;;;;;18.87;61.82;100150.19;5096948;28;1682;-95
2022/07/13 03:07:49;;;;;;;;;;;;;;;18.86;62.02;100145.84;5099348;28;2971;-96
2022/07/13 03:10:16;;;;;;;;;;;;;;;18.86;61.63;100143.09;5096378;28;2920;-96
2022/07/13 03:12:42;;;;;;;;;;;;;;;18.86;61.77;100141.19;5097447;28;1735;-95
2022/07/13 03:15:09;;;;;;;;;;;;;;;18.84;61.99;100137.91;5087175;28;1816;-95
2022/07/13 03:17:36;;;;;;;;;;;;;;;18.85;61.76;100145.00;5114906;28;1976;-95
2022/07/13 03:20:02;;;;;;;;;;;;;;;18.84;61.65;100133.28;5104813;28;1429;-95
2022/07/13 03:22:29;;;;;;;;;;;;;;;18.83;62.13;100134.38;5106805;28;1315;-95
2022/07/13 03:24:55;;;;;;;;;;;;;;;18.82;62.12;100124.59;5105700;28;1607;-95
2022/07/13 03:27:21;;;;;;;;;;;;;;;18.84;61.99;100127.00;5108130;28;2145;-95
2022/07/13 03:29:48;;;;;;;;;;;;;;;18.83;62.03;100119.94;5102368;28;1332;-95
2022/07/13 03:32:14;;;;;;;;;;;;;;;18.82;62.07;100115.56;5102275;28;1545;-95
2022/07/13 03:34:41;;;;;;;;;;;;;;;18.82;61.68;100121.00;5101693;28;1757;-95
2022/07/13 03:37:08;;;;;;;;;;;;;;;18.81;62.11;100120.19;5104081;28;1906;-95
2022/07/13 03:39:35;;;;;;;;;;;;;;;18.80;62.13;100118.59;5099037;28;1729;-95
2022/07/13 03:42:01;;;;;;;;;;;;;;;18.81;62.15;100116.66;5100854;28;1556;-95
2022/07/13 03:44:28;;;;;;;;;;;;;;;18.81;62.13;100111.22;5102260;28;1797;-95
2022/07/13 03:46:54;;;;;;;;;;;;;;;18.80;61.75;100115.06;5103828;28;1483;-95
2022/07/13 03:49:20;;;;;;;;;;;;;;;18.80;61.80;100106.88;5098443;28;1194;-95
2022/07/13 03:51:48;;;;;;;;;;;;;;;18.80;61.98;100104.94;5102610;28;1385;-95
2022/07/13 03:54:14;;;;;;;;;;;;;;;18.80;61.68;100109.59;5099242;28;1483;-95
2022/07/13 03:56:41;;;;;;;;;;;;;;;18.80;61.68;100106.88;5101363;28;1474;-95
2022/07/13 03:59:07;;;;;;;;;;;;;;;18.79;61.76;100099.75;5100369;28;1922;-95
2022/07/13 04:01:33;;;;;;;;;;;;;;;18.79;61.62;100092.38;5095424;28;1374;-94
2022/07/13 04:04:00;;;;;;;;;;;;;;;18.78;61.96;100085.31;5100602;28;1713;-95
2022/07/13 04:06:26;;;;;;;;;;;;;;;18.78;61.68;100090.78;5112474;28;1504;-95
2022/07/13 04:08:52;;;;;;;;;;;;;;;18.77;61.85;100089.16;5096380;28;1672;-95
2022/07/13 04:11:19;;;;;;;;;;;;;;;18.77;61.86;100083.69;5098852;28;1521;-95
2022/07/13 04:13:45;;;;;;;;;;;;;;;18.77;61.76;100091.88;5096296;28;1516;-95
2022/07/13 04:16:11;;;;;;;;;;;;;;;18.78;61.90;100098.16;5083409;28;1742;-95
2022/07/13 04:18:38;;;;;;;;;;;;;;;18.77;61.78;100091.06;5100652;28;1910;-95
2022/07/13 04:21:05;;;;;;;;;;;;;;;18.76;61.83;100090.22;5100580;28;1407;-95
2022/07/13 04:23:32;;;;;;;;;;;;;;;18.75;62.03;100077.69;5099271;28;1460;-95
2022/07/13 04:25:58;;;;;;;;;;;;;;;18.76;61.82;100081.25;5085382;28;1647;-94
2022/07/13 04:28:24;;;;;;;;;;;;;;;18.75;61.90;100083.16;5095714;28;1382;-95
2022/07/13 04:30:52;;;;;;;;;;;;;;;18.76;61.65;100082.03;5106923;28;1433;-95
2022/07/13 04:33:18;;;;;;;;;;;;;;;18.75;61.69;100079.63;5095451;28;1386;-95
2022/07/13 04:35:44;;;;;;;;;;;;;;;18.76;61.73;100078.50;5082506;28;1856;-95
2022/07/13 04:38:11;;;;;;;;;;;;;;;18.75;61.60;100083.16;5111599;28;1917;-95
2022/07/13 04:40:37;;;;;;;;;;;;;;;18.74;61.73;100076.09;5097024;28;1533;-95
2022/07/13 04:43:03;;;;;;;;;;;;;;;18.75;61.80;100080.44;5094811;28;1505;-96
2022/07/13 04:45:30;;;;;;;;;;;;;;;18.75;61.51;100074.16;5091219;28;1751;-95
2022/07/13 04:47:57;;;;;;;;;;;;;;;18.75;61.60;100071.44;5096555;28;1180;-95
2022/07/13 04:50:23;;;;;;;;;;;;;;;18.73;61.79;100071.72;5099022;28;1481;-95
2022/07/13 04:52:49;;;;;;;;;;;;;;;18.73;61.50;100068.13;5099644;28;1449;-95
2022/07/13 04:55:16;;;;;;;;;;;;;;;18.74;61.50;100067.09;5086861;28;1959;-96
2022/07/13 04:57:43;;;;;;;;;;;;;;;18.73;61.57;100066.25;5114044;27;1979;-95
2022/07/13 05:00:09;;;;;;;;;;;;;;;18.73;61.76;100068.97;5096664;28;1299;-95
2022/07/13 05:02:36;;;;;;;;;;;;;;;18.73;61.99;100062.69;5102504;28;1549;-94
2022/07/13 05:05:02;;;;;;;;;;;;;;;18.74;61.81;100061.63;5100603;28;1686;-95
2022/07/13 05:07:29;;;;;;;;;;;;;;;18.73;61.50;100060.78;5094477;28;1801;-95
2022/07/13 05:09:56;;;;;;;;;;;;;;;18.73;61.76;100051.78;5096156;28;1340;-95
2022/07/13 05:12:22;;;;;;;;;;;;;;;18.72;61.71;100042.78;5099819;28;1959;-95
2022/07/13 05:14:49;;;;;;;;;;;;;;;18.73;61.79;100040.88;5101290;28;1662;-95
2022/07/13 05:17:16;;;;;;;;;;;;;;;18.73;61.79;100043.59;5102526;28;1914;-95
2022/07/13 05:19:43;;;;;;;;;;;;;;;18.72;61.75;100040.06;5091452;28;1754;-95
2022/07/13 05:22:09;;;;;;;;;;;;;;;18.72;61.85;100045.50;5118206;27;1369;-96
2022/07/13 05:24:36;;;;;;;;;;;;;;;18.72;61.87;100039.25;5101048;28;1439;-95
2022/07/13 05:27:02;;;;;;;;;;;;;;;18.73;61.78;100040.88;5097804;28;1533;-96
2022/07/13 05:29:29;;;;;;;;;;;;;;;18.72;61.79;100040.06;5107853;28;1945;-95
2022/07/13 05:31:55;;;;;;;;;;;;;;;18.72;61.72;100036.53;5120092;27;1536;-95
2022/07/13 05:34:22;;;;;;;;;;;;;;;18.72;61.59;100037.31;5101342;28;1527;-94
2022/07/13 05:36:48;;;;;;;;;;;;;;;18.72;61.79;100036.53;5099482;28;1525;-95
2022/07/13 05:39:14;;;;;;;;;;;;;;;18.73;61.62;100027.22;5103903;28;2907;-95
2022/07/13 05:41:41;;;;;;;;;;;;;;;18.72;61.74;100020.16;5112536;28;2102;-96
2022/07/13 05:44:07;;;;;;;;;;;;;;;18.71;61.79;100019.34;5091617;28;2247;-94
2022/07/13 05:46:33;;;;;;;;;;;;;;;18.73;61.59;100016.31;5095492;28;1258;-95
2022/07/13 05:49:00;;;;;;;;;;;;;;;18.71;61.32;100005.72;5095585;28;1211;-95
2022/07/13 05:51:26;;;;;;;;;;;;;;;18.72;61.84;100006.53;5091832;28;1648;-95
2022/07/13 05:53:52;;;;;;;;;;;;;;;18.72;61.54;100012.78;5109645;28;1461;-96
2022/07/13 05:56:19;;;;;;;;;;;;;;;18.72;61.87;100007.31;5094779;28;1474;-96
2022/07/13 05:58:45;;;;;;;;;;;;;;;18.73;61.42;100010.84;5094295;28;1997;-95
2022/07/13 06:01:11;;;;;;;;;;;;;;;18.72;61.59;100001.06;5089727;28;1699;-96
2022/07/13 06:03:38;;;;;;;;;;;;;;;18.72;61.76;100004.59;5094673;28;2030;-95
2022/07/13 06:06:04;;;;;;;;;;;;;;;18.72;61.46;100001.06;5113134;27;1688;-95
2022/07/13 06:08:31;;;;;;;;;;;;;;;18.72;61.68;100001.06;5107955;27;1918;-95
2022/07/13 06:10:57;;;;;;;;;;;;;;;18.72;61.76;99996.41;5092962;28;1775;-95
2022/07/13 06:13:24;;;;;;;;;;;;;;;18.72;61.42;99993.69;5112342;28;1388;-95
2022/07/13 06:15:50;;;;;;;;;;;;;;;18.72;61.63;99993.69;5100168;28;1549;-96
2022/07/13 06:18:17;;;;;;;;;;;;;;;18.72;61.68;99990.97;5099268;28;1970;-95
2022/07/13 06:20:43;;;;;;;;;;;;;;;18.72;61.57;99995.59;5099941;28;1461;-95
2022/07/13 06:23:16;;;;;;;;;;;;;;;18.72;61.43;99987.44;5094758;28;1683;-95
2022/07/13 06:25:43;;;;;;;;;;;;;;;18.75;61.62;99986.88;5104984;28;1828;-95
2022/07/13 06:28:09;;;;;;;;;;;;;;;18.73;61.62;99981.69;5092562;28;1675;-94
2022/07/13 06:30:36;;;;;;;;;;;;;;;18.72;61.80;99982.78;5094366;28;1352;-95
2022/07/13 06:33:02;;;;;;;;;;;;;;;18.73;61.59;99987.16;5094513;28;1487;-95
2022/07/13 06:35:29;;;;;;;;;;;;;;;18.72;61.64;99979.25;5077859;28;1876;-96
2022/07/13 06:37:55;;;;;;;;;;;;;;;18.74;61.45;99988.00;5111157;27;2013;-95
2022/07/13 06:40:23;;;;;;;;;;;;;;;18.73;61.69;99989.03;5111184;27;1503;-95
2022/07/13 06:42:49;;;;;;;;;;;;;;;18.73;61.84;99987.16;5082439;28;1546;-95
2022/07/13 06:45:16;;;;;;;;;;;;;;;18.73;61.48;99987.16;5086647;28;1923;-95
2022/07/13 06:47:42;;;;;;;;;;;;;;;18.73;61.58;99983.59;5094325;28;2347;-95
2022/07/13 06:50:08;;;;;;;;;;;;;;;18.74;61.72;99974.34;5096065;28;1530;-95
2022/07/13 06:52:35;;;;;;;;;;;;;;;18.74;61.57;99968.91;5100047;28;1462;-95
2022/07/13 06:55:02;;;;;;;;;;;;;;;18.73;61.62;99965.34;5101701;28;1540;-95
2022/07/13 06:57:29;;;;;;;;;;;;;;;18.74;61.71;99953.34;5088045;28;1711;-95
2022/07/13 06:59:55;;;;;;;;;;;;;;;18.74;61.72;99958.00;5098333;28;2008;-95
2022/07/13 07:02:21;;;;;;;;;;;;;;;18.73;61.79;99939.94;5097777;28;1463;-95
2022/07/13 07:04:48;;;;;;;;;;;;;;;18.73;61.54;99935.31;5091797;28;1722;-95
2022/07/13 07:07:14;;;;;;;;;;;;;;;18.74;61.61;99936.16;5086377;28;2212;-95
2022/07/13 07:09:41;;;;;;;;;;;;;;;18.74;61.72;99923.34;5093779;28;1469;-94
2022/07/13 07:12:07;;;;;;;;;;;;;;;18.73;61.57;99932.59;5093699;28;1498;-95
2022/07/13 07:14:33;;;;;;;;;;;;;;;18.74;61.74;99927.97;5095245;28;1475;-95
2022/07/13 07:17:02;;;;;;;;;;;;;;;18.74;61.55;99919.81;5106430;28;1820;-95
2022/07/13 07:19:28;;;;;;;;;;;;;;;18.75;61.76;99910.50;5107167;28;1914;-95
2022/07/13 07:21:55;;;;;;;;;;;;;;;18.74;61.53;99904.25;5090722;28;2212;-94
2022/07/13 07:24:21;;;;;;;;;;;;;;;18.75;61.70;99918.69;5089278;28;2098;-93
2022/07/13 07:26:48;;;;;;;;;;;;;;;18.76;61.67;99910.19;5093181;28;1710;-95
2022/07/13 07:29:15;;;;;;;;;;;;;;;18.75;61.70;99903.13;5093709;28;1450;-94
2022/07/13 07:31:41;;;;;;;;;;;;;;;18.76;61.62;99912.94;5100122;28;1460;-95
2022/07/13 07:34:08;;;;;;;;;;;;;;;18.75;61.59;99903.13;5092577;28;1776;-95
2022/07/13 07:36:34;;;;;;;;;;;;;;;18.76;61.78;99915.66;5093027;28;1793;-94
2022/07/13 07:39:01;;;;;;;;;;;;;;;18.76;61.57;99921.09;5109676;28;1967;-94
2022/07/13 07:41:27;;;;;;;;;;;;;;;18.76;61.71;99918.38;5092352;28;1702;-94
2022/07/13 07:43:53;;;;;;;;;;;;;;;18.78;61.53;99909.94;5100120;28;1795;-94
2022/07/13 07:46:20;;;;;;;;;;;;;;;18.77;61.70;99914.56;5093485;28;1612;-94
2022/07/13 07:48:46;;;;;;;;;;;;;;;18.76;61.60;99910.19;5092816;28;2069;-94
2022/07/13 07:51:12;;;;;;;;;;;;;;;18.78;61.91;99923.56;5094049;28;1691;-95
2022/07/13 07:53:40;;;;;;;;;;;;;;;18.79;61.89;99919.72;5093216;28;1714;-94
2022/07/13 07:56:06;;;;;;;;;;;;;;;18.77;61.72;99917.31;5094753;28;1660;-94
2022/07/13 07:58:33;;;;;;;;;;;;;;;18.78;61.64;99909.94;5095895;28;2052;-95
2022/07/13 08:00:59;;;;;;;;;;;;;;;18.78;61.74;99910.72;5097363;28;1507;-95
2022/07/13 08:03:25;;;;;;;;;;;;;;;18.78;61.72;99909.94;5088820;28;1872;-95
2022/07/13 08:05:52;;;;;;;;;;;;;;;18.79;61.67;99906.88;5092542;28;1868;-94
2022/07/13 08:08:18;;;;;;;;;;;;;;;18.79;61.73;99911.53;5092112;28;3080;-95
2022/07/13 08:10:45;;;;;;;;;;;;;;;18.79;61.80;99912.34;5094629;28;2235;-94
2022/07/13 08:13:12;;;;;;;;;;;;;;;18.79;61.72;99915.06;5080266;28;1911;-94
2022/07/13 08:15:38;;;;;;;;;;;;;;;18.79;61.90;99906.88;5095509;28;1833;-94
2022/07/13 08:18:04;;;;;;;;;;;;;;;18.80;61.90;99905.00;5094622;28;1991;-94
2022/07/13 08:20:30;;;;;;;;;;;;;;;18.78;61.99;99902.53;5097168;28;1180;-94
2022/07/13 08:22:57;;;;;;;;;;;;;;;18.80;61.82;99896.81;5095701;28;1891;-94
2022/07/13 08:25:23;;;;;;;;;;;;;;;18.81;61.78;99906.63;5097014;28;1736;-95
2022/07/13 08:27:50;;;;;;;;;;;;;;;18.80;61.89;99903.09;5099408;28;2554;-94
2022/07/13 08:30:16;;;;;;;;;;;;;;;18.80;61.71;99897.63;5101420;28;1691;-95
2022/07/13 08:32:43;;;;;;;;;;;;;;;18.81;61.86;99892.97;5109042;28;1843;-94
2022/07/13 08:40:42;;;;;;;;;;;;;;;18.81;61.83;99893.78;5086812;28;1827;-95
2022/07/13 08:43:08;;;;;;;;;;;;;;;18.82;61.67;99891.88;5112639;28;1885;-96
2022/07/13 08:45:35;;;;;;;;;;;;;;;18.83;61.68;99890.78;5093741;28;2001;-96
2022/07/13 08:48:01;;;;;;;;;;;;;;;18.83;61.66;99891.59;5087728;28;2223;-95
2022/07/13 08:50:28;;;;;;;;;;;;;;;18.84;61.75;99882.28;5109890;28;1642;-95
2022/07/13 08:52:54;;;;;;;;;;;;;;;18.83;61.62;99883.41;5091103;28;1678;-95
2022/07/13 08:55:21;;;;;;;;;;;;;;;18.84;61.50;99878.75;5096802;28;1743;-95
2022/07/13 08:57:47;;;;;;;;;;;;;;;18.84;61.84;99870.56;5096170;28;1434;-95
2022/07/13 09:00:14;;;;;;;;;;;;;;;18.84;61.75;99876.03;5076887;28;2177;-95
2022/07/13 09:02:40;;;;;;;;;;;;;;;18.86;61.74;99873.03;5094151;28;1868;-96
2022/07/13 09:05:07;;;;;;;;;;;;;;;18.87;61.82;99861.00;5105568;28;1678;-94
2022/07/13 09:07:34;;;;;;;;;;;;;;;18.86;61.72;99857.47;5078690;28;2230;-94
2022/07/13 09:10:01;;;;;;;;;;;;;;;18.85;61.58;99855.81;5084660;28;1722;-95
2022/07/13 09:12:28;;;;;;;;;;;;;;;18.87;61.71;99850.88;5086518;28;3017;-93
2022/07/13 09:14:54;;;;;;;;;;;;;;;18.88;61.49;99851.69;5088364;28;3133;-94
2022/07/13 09:17:21;;;;;;;;;;;;;;;18.88;61.31;99843.50;5077292;28;1579;-95
2022/07/13 09:19:47;;;;;;;;;;;;;;;18.88;61.36;99833.41;5093996;28;1993;-94
2022/07/13 09:22:14;;;;;;;;;;;;;;;18.89;61.31;99831.53;5092180;28;1543;-94
2022/07/13 09:24:40;;;;;;;;;;;;;;;18.89;61.70;99829.59;5104351;28;1931;-94
2022/07/13 09:27:07;;;;;;;;;;;;;;;18.90;61.65;99824.94;5092992;28;1860;-94
2022/07/13 09:29:33;;;;;;;;;;;;;;;18.89;61.66;99809.69;5096040;28;2129;-94
2022/07/13 09:32:00;;;;;;;;;;;;;;;18.89;61.50;99802.31;5092830;28;1695;-94
2022/07/13 09:34:29;;;;;;;;;;;;;;;18.90;61.73;99809.38;5094228;28;1894;-94
2022/07/13 09:36:55;;;;;;;;;;;;;;;18.91;61.44;99811.00;5094297;28;1667;-93
2022/07/13 09:39:22;;;;;;;;;;;;;;;18.91;61.77;99816.44;5092890;28;2273;-93
2022/07/13 09:41:48;;;;;;;;;;;;;;;18.91;61.80;99813.72;5090471;28;2170;-93
2022/07/13 09:46:59;;;;;;;;;;;;;;;18.93;61.55;99802.53;5093236;28;5073;-93
2022/07/13 09:49:26;;;;;;;;;;;;;;;18.92;61.76;99801.72;5092629;28;1891;-96
2022/07/13 09:51:53;;;;;;;;;;;;;;;18.92;61.80;99790.81;5085452;28;2137;-93
2022/07/13 09:54:20;;;;;;;;;;;;;;;18.94;61.51;99779.59;5076845;28;1902;-93
2022/07/13 09:56:46;;;;;;;;;;;;;;;18.93;61.57;99770.59;5089169;28;2310;-93
2022/07/13 09:59:13;;;;;;;;;;;;;;;18.95;61.82;99765.66;5074771;28;1975;-93
2022/07/13 10:01:39;;;;;;;;;;;;;;;18.95;61.67;99767.59;5086768;28;2097;-93
2022/07/13 10:04:08;;;;;;;;;;;;;;;18.96;61.58;99767.28;5094735;28;1469;-93
2022/07/13 10:06:34;;;;;;;;;;;;;;;18.97;61.50;99766.19;5114109;27;1694;-94
2022/07/13 10:09:01;;;;;;;;;;;;;;;18.96;61.84;99753.66;5096171;28;1980;-95
2022/07/13 10:11:27;;;;;;;;;;;;;;;18.97;61.55;99738.06;5082310;28;5188;-94
2022/07/13 10:13:54;;;;;;;;;;;;;;;18.99;61.64;99746.78;5105069;27;2749;-95
2022/07/13 10:16:21;;;;;;;;;;;;;;;18.99;61.67;99733.16;5095814;28;1691;-95
2022/07/13 10:18:47;;;;;;;;;;;;;;;18.99;61.93;99733.16;5096077;28;1981;-95
2022/07/13 10:21:14;;;;;;;;;;;;;;;19.00;61.81;99721.13;5099265;28;1658;-94
2022/07/13 10:23:40;;;;;;;;;;;;;;;19.01;61.78;99723.56;5084678;28;4922;-94
2022/07/13 10:26:07;;;;;;;;;;;;;;;19.00;61.87;99721.94;5090781;28;5128;-94
2022/07/13 10:28:34;;;;;;;;;;;;;;;19.01;61.78;99714.56;5107393;27;2140;-94
2022/07/13 10:31:01;;;;;;;;;;;;;;;19.03;61.68;99712.34;5100189;28;1718;-94
2022/07/13 10:33:27;;;;;;;;;;;;;;;19.04;61.78;99706.59;5094583;28;2068;-94
2022/07/13 10:35:54;;;;;;;;;;;;;;;19.04;61.88;99703.88;5093939;28;1913;-94
2022/07/13 10:38:22;;;;;;;;;;;;;;;19.05;61.64;99700.03;5092911;28;2114;-96
2022/07/13 10:40:49;;;;;;;;;;;;;;;19.06;61.82;99698.94;5093661;28;2195;-95
2022/07/13 10:43:15;;;;;;;;;;;;;;;19.07;61.97;99694.28;5095212;28;1845;-95
2022/07/13 10:45:43;;;;;;;;;;;;;;;19.09;61.57;99689.34;5094182;28;1438;-94
2022/07/13 10:48:11;;;;;;;;;;;;;;;19.09;61.92;99686.63;5095842;28;2289;-95
2022/07/13 10:50:38;;;;;;;;;;;;;;;19.10;61.86;99701.88;5094708;28;1572;-95
2022/07/13 10:53:04;;;;;;;;;;;;;;;19.10;61.66;99703.78;5092029;28;1760;-94
2022/07/13 10:55:32;;;;;;;;;;;;;;;19.11;61.86;99699.94;5093136;28;1705;-94
2022/07/13 10:58:00;;;;;;;;;;;;;;;19.12;61.96;99701.56;5094883;28;1706;-96
2022/07/13 11:00:28;;;;;;;;;;;;;;;19.12;61.81;99702.41;5094771;28;2093;-95
2022/07/13 11:02:56;;;;;;;;;;;;;;;19.13;61.83;99709.47;5094207;28;1663;-95
2022/07/13 11:05:25;;;;;;;;;;;;;;;19.15;61.93;99717.34;5074233;28;1297;-94
2022/07/13 11:07:51;;;;;;;;;;;;;;;19.15;62.08;99711.88;5089278;28;1703;-94
2022/07/13 11:10:18;;;;;;;;;;;;;;;19.15;62.15;99715.44;5094573;28;1734;-95
2022/07/13 11:12:44;;;;;;;;;;;;;;;19.16;62.17;99718.97;5094774;28;1730;-95
2022/07/13 11:15:11;;;;;;;;;;;;;;;19.16;61.93;99718.97;5092881;28;2237;-95
2022/07/13 11:17:37;;;;;;;;;;;;;;;19.17;62.14;99735.03;5079788;28;2619;-96
2022/07/13 11:20:07;;;;;;;;;;;;;;;19.17;62.18;99737.78;5088670;28;2401;-96
2022/07/13 11:25:14;;;;;;;;;;;;;;;19.19;62.22;99771.06;5095266;28;2078;-96
2022/07/13 11:27:41;;;;;;;;;;;;;;;19.19;62.43;99806.53;5093542;28;1941;-95
2022/07/13 11:30:07;;;;;;;;;;;;;;;19.21;62.28;99852.66;5076451;28;1992;-96
2022/07/13 11:32:34;;;;;;;;;;;;;;;19.21;62.44;99869.84;5088240;28;1578;-96
2022/07/13 11:35:01;;;;;;;;;;;;;;;19.21;63.09;99888.94;5090716;28;2011;-96
2022/07/13 11:37:27;;;;;;;;;;;;;;;19.22;62.96;99897.94;5092612;28;2141;-96
2022/07/13 11:39:54;;;;;;;;;;;;;;;19.21;62.98;99899.88;5096192;28;2164;-96
2022/07/13 11:42:21;;;;;;;;;;;;;;;19.20;63.03;99853.75;5097975;28;1322;-96
2022/07/13 11:44:47;;;;;;;;;;;;;;;19.20;62.99;99861.94;5092522;28;2200;-95
2022/07/13 11:47:14;;;;;;;;;;;;;;;19.20;63.14;99862.75;5097600;28;1260;-95
2022/07/13 11:49:40;;;;;;;;;;;;;;;19.21;63.00;99858.13;5096088;28;2187;-96
2022/07/13 11:52:07;;;;;;;;;;;;;;;19.21;62.78;99849.94;5095131;28;1951;-96
2022/07/13 11:54:33;;;;;;;;;;;;;;;19.21;62.73;99847.19;5101923;28;2035;-96
2022/07/13 11:57:00;;;;;;;;;;;;;;;19.19;62.73;99833.81;5087248;28;1955;-96
2022/07/13 11:59:26;;;;;;;;;;;;;;;19.20;62.78;99831.91;5112389;28;1913;-96
2022/07/13 12:01:53;;;;;;;;;;;;;;;19.20;62.39;99837.38;5095443;28;2046;-96
2022/07/13 12:04:19;;;;;;;;;;;;;;;19.19;62.94;99838.47;5102596;28;1298;-95
2022/07/13 12:06:46;;;;;;;;;;;;;;;19.18;62.87;99818.56;5100139;28;2364;-95
2022/07/13 12:09:13;;;;;;;;;;;;;;;19.17;62.79;99818.84;5096064;28;1397;-96
2022/07/13 12:11:39;;;;;;;;;;;;;;;19.17;62.49;99807.94;5097793;28;2226;-94
2022/07/13 12:14:06;;;;;;;;;;;;;;;19.16;62.81;99815.31;5094051;28;2056;-96
2022/07/13 12:16:32;;;;;;;;;;;;;;;19.17;62.89;99813.38;5096094;28;2266;-96
2022/07/13 12:18:59;;;;;;;;;;;;;;;19.17;62.53;99810.66;5096432;28;1950;-95
2022/07/13 12:21:25;;;;;;;;;;;;;;;19.17;62.94;99802.47;5095154;28;2042;-95
2022/07/13 12:23:52;;;;;;;;;;;;;;;19.15;62.93;99796.50;5076897;28;1197;-96
2022/07/13 12:26:19;;;;;;;;;;;;;;;19.13;62.92;99799.53;5092527;28;1552;-96
2022/07/13 12:28:45;;;;;;;;;;;;;;;19.15;62.98;99804.69;5116749;28;1273;-96
2022/07/13 12:31:12;;;;;;;;;;;;;;;19.14;62.70;99800.34;5085077;28;1288;-96
2022/07/13 12:33:39;;;;;;;;;;;;;;;19.14;62.94;99803.88;5101166;28;1517;-96
2022/07/13 12:36:08;;;;;;;;;;;;;;;19.14;62.76;99798.41;5105191;28;1830;-96
2022/07/13 12:38:36;;;;;;;;;;;;;;;19.12;63.05;99792.47;5104828;28;857;-96
2022/07/13 12:41:03;;;;;;;;;;;;;;;19.13;62.99;99790.53;5091124;28;1906;-96
2022/07/13 12:43:30;;;;;;;;;;;;;;;19.12;63.13;99787.00;5101643;28;1380;-96
2022/07/13 12:45:57;;;;;;;;;;;;;;;19.13;62.90;99785.88;5097664;28;2094;-96
2022/07/13 12:48:23;;;;;;;;;;;;;;;19.12;63.04;99777.97;5105172;28;1306;-96
2022/07/13 12:50:50;;;;;;;;;;;;;;;19.12;63.00;99783.44;5096536;28;1551;-96
2022/07/13 12:53:17;;;;;;;;;;;;;;;19.12;62.72;99787.00;5100300;28;1376;-96
2022/07/13 12:55:43;;;;;;;;;;;;;;;19.12;62.72;99780.69;5096952;28;1510;-96
2022/07/13 12:58:11;;;;;;;;;;;;;;;19.10;63.01;99778.28;5093272;28;1946;-96
2022/07/13 13:00:38;;;;;;;;;;;;;;;19.10;63.04;99770.09;5096720;28;1906;-96